sensor_id;sensor_type;location;lat;lon;timestamp;P1;durP1;ratioP1;P2;durP2;ratioP2
10945;SDS011;5525;42.648;23.368;2022-12-17T00:02:30;40.17;;;25.55;;
10945;SDS011;5525;42.648;23.368;2022-12-17T00:05:15;39.42;;;26.40;;
10945;SDS011;5525;42.648;23.368;2022-12-17T00:08:00;37.78;;;24.58;;
10945;SDS011;5525;42.648;23.368;2022-12-17T00:10:50;36.55;;;25.42;;
10945;SDS011;5525;42.648;23.368;2022-12-17T00:13:36;37.45;;;24.17;;
10945;SDS011;5525;42.648;23.368;2022-12-17T00:16:29;38.42;;;25.13;;
10945;SDS011;5525;42.648;23.368;2022-12-17T00:19:16;36.33;;;23.83;;
10945;SDS011;5525;42.648;23.368;2022-12-17T00:22:02;37.53;;;25.05;;
10945;SDS011;5525;42.648;23.368;2022-12-17T00:24:48;37.13;;;25.35;;
10945;SDS011;5525;42.648;23.368;2022-12-17T00:27:34;34.85;;;23.70;;
10945;SDS011;5525;42.648;23.368;2022-12-17T00:30:20;36.63;;;23.70;;
10945;SDS011;5525;42.648;23.368;2022-12-17T00:32:57;35.67;;;23.48;;
10945;SDS011;5525;42.648;23.368;2022-12-17T00:38:48;38.53;;;25.55;;
10945;SDS011;5525;42.648;23.368;2022-12-17T00:41:35;36.88;;;24.88;;
10945;SDS011;5525;42.648;23.368;2022-12-17T00:47:04;35.35;;;24.48;;
10945;SDS011;5525;42.648;23.368;2022-12-17T00:49:50;37.38;;;25.55;;
10945;SDS011;5525;42.648;23.368;2022-12-17T01:00:40;40.78;;;25.67;;
10945;SDS011;5525;42.648;23.368;2022-12-17T01:03:25;42.28;;;28.05;;
10945;SDS011;5525;42.648;23.368;2022-12-17T01:06:11;42.80;;;27.85;;
10945;SDS011;5525;42.648;23.368;2022-12-17T01:08:58;39.47;;;27.17;;
10945;SDS011;5525;42.648;23.368;2022-12-17T01:11:45;44.90;;;29.40;;
10945;SDS011;5525;42.648;23.368;2022-12-17T01:14:33;41.50;;;27.65;;
10945;SDS011;5525;42.648;23.368;2022-12-17T01:35:23;40.90;;;26.17;;
10945;SDS011;5525;42.648;23.368;2022-12-17T01:38:13;37.65;;;25.45;;
10945;SDS011;5525;42.648;23.368;2022-12-17T01:41:02;38.10;;;24.63;;
10945;SDS011;5525;42.648;23.368;2022-12-17T01:43:55;44.78;;;26.98;;
10945;SDS011;5525;42.648;23.368;2022-12-17T01:46:47;39.00;;;25.25;;
10945;SDS011;5525;42.648;23.368;2022-12-17T01:49:39;37.92;;;24.45;;
10945;SDS011;5525;42.648;23.368;2022-12-17T01:52:36;40.25;;;23.30;;
10945;SDS011;5525;42.648;23.368;2022-12-17T01:55:33;40.10;;;24.73;;
10945;SDS011;5525;42.648;23.368;2022-12-17T01:58:20;39.03;;;23.65;;
10945;SDS011;5525;42.648;23.368;2022-12-17T02:01:09;35.72;;;22.60;;
10945;SDS011;5525;42.648;23.368;2022-12-17T02:04:00;35.85;;;23.05;;
10945;SDS011;5525;42.648;23.368;2022-12-17T02:06:47;36.05;;;21.77;;
10945;SDS011;5525;42.648;23.368;2022-12-17T02:09:44;35.13;;;20.95;;
10945;SDS011;5525;42.648;23.368;2022-12-17T02:12:37;34.53;;;21.30;;
10945;SDS011;5525;42.648;23.368;2022-12-17T02:15:31;34.85;;;21.17;;
10945;SDS011;5525;42.648;23.368;2022-12-17T02:18:27;35.58;;;20.90;;
10945;SDS011;5525;42.648;23.368;2022-12-17T02:21:20;30.85;;;20.90;;
10945;SDS011;5525;42.648;23.368;2022-12-17T02:24:07;33.78;;;20.90;;
10945;SDS011;5525;42.648;23.368;2022-12-17T02:26:59;32.45;;;19.90;;
10945;SDS011;5525;42.648;23.368;2022-12-17T02:29:47;29.35;;;20.33;;
10945;SDS011;5525;42.648;23.368;2022-12-17T02:32:22;27.35;;;18.23;;
10945;SDS011;5525;42.648;23.368;2022-12-17T02:35:14;30.60;;;19.42;;
10945;SDS011;5525;42.648;23.368;2022-12-17T02:38:00;33.20;;;19.55;;
10945;SDS011;5525;42.648;23.368;2022-12-17T02:40:45;31.42;;;19.77;;
10945;SDS011;5525;42.648;23.368;2022-12-17T02:43:40;28.42;;;18.35;;
10945;SDS011;5525;42.648;23.368;2022-12-17T02:46:26;28.60;;;19.23;;
10945;SDS011;5525;42.648;23.368;2022-12-17T02:49:12;29.60;;;18.80;;
10945;SDS011;5525;42.648;23.368;2022-12-17T02:51:57;25.42;;;18.05;;
10945;SDS011;5525;42.648;23.368;2022-12-17T02:54:43;27.38;;;18.33;;
10945;SDS011;5525;42.648;23.368;2022-12-17T02:57:27;24.50;;;16.63;;
10945;SDS011;5525;42.648;23.368;2022-12-17T03:00:15;29.35;;;16.77;;
10945;SDS011;5525;42.648;23.368;2022-12-17T03:03:00;24.85;;;16.42;;
10945;SDS011;5525;42.648;23.368;2022-12-17T03:05:47;28.20;;;17.58;;
10945;SDS011;5525;42.648;23.368;2022-12-17T03:08:33;27.58;;;17.83;;
10945;SDS011;5525;42.648;23.368;2022-12-17T03:11:18;25.25;;;16.63;;
10945;SDS011;5525;42.648;23.368;2022-12-17T03:14:03;24.42;;;16.02;;
10945;SDS011;5525;42.648;23.368;2022-12-17T03:16:49;26.70;;;16.83;;
10945;SDS011;5525;42.648;23.368;2022-12-17T03:19:39;25.38;;;16.80;;
10945;SDS011;5525;42.648;23.368;2022-12-17T03:22:27;25.50;;;16.65;;
10945;SDS011;5525;42.648;23.368;2022-12-17T03:25:12;27.25;;;17.85;;
10945;SDS011;5525;42.648;23.368;2022-12-17T03:28:01;27.98;;;17.45;;
10945;SDS011;5525;42.648;23.368;2022-12-17T03:30:46;27.00;;;17.20;;
10945;SDS011;5525;42.648;23.368;2022-12-17T03:33:32;22.67;;;16.00;;
10945;SDS011;5525;42.648;23.368;2022-12-17T03:36:18;23.13;;;15.48;;
10945;SDS011;5525;42.648;23.368;2022-12-17T03:39:04;24.48;;;16.75;;
10945;SDS011;5525;42.648;23.368;2022-12-17T03:41:49;23.83;;;15.68;;
10945;SDS011;5525;42.648;23.368;2022-12-17T03:44:35;23.83;;;15.40;;
10945;SDS011;5525;42.648;23.368;2022-12-17T03:47:19;23.13;;;16.15;;
10945;SDS011;5525;42.648;23.368;2022-12-17T03:50:06;24.02;;;16.25;;
10945;SDS011;5525;42.648;23.368;2022-12-17T03:52:51;23.15;;;15.85;;
10945;SDS011;5525;42.648;23.368;2022-12-17T03:55:35;24.63;;;16.48;;
10945;SDS011;5525;42.648;23.368;2022-12-17T03:58:20;24.52;;;16.30;;
10945;SDS011;5525;42.648;23.368;2022-12-17T04:01:07;22.85;;;15.32;;
10945;SDS011;5525;42.648;23.368;2022-12-17T04:03:53;26.00;;;16.27;;
10945;SDS011;5525;42.648;23.368;2022-12-17T04:06:40;26.77;;;16.48;;
10945;SDS011;5525;42.648;23.368;2022-12-17T04:09:26;27.50;;;19.63;;
10945;SDS011;5525;42.648;23.368;2022-12-17T04:12:10;26.75;;;18.17;;
10945;SDS011;5525;42.648;23.368;2022-12-17T04:14:55;29.58;;;18.30;;
10945;SDS011;5525;42.648;23.368;2022-12-17T04:17:40;28.00;;;18.33;;
10945;SDS011;5525;42.648;23.368;2022-12-17T04:20:24;31.20;;;19.08;;
10945;SDS011;5525;42.648;23.368;2022-12-17T04:23:11;32.97;;;22.23;;
10945;SDS011;5525;42.648;23.368;2022-12-17T04:25:56;31.48;;;19.25;;
10945;SDS011;5525;42.648;23.368;2022-12-17T04:28:41;24.92;;;17.45;;
10945;SDS011;5525;42.648;23.368;2022-12-17T04:31:26;24.17;;;15.80;;
10945;SDS011;5525;42.648;23.368;2022-12-17T04:34:15;24.73;;;16.23;;
10945;SDS011;5525;42.648;23.368;2022-12-17T04:37:00;22.50;;;15.15;;
10945;SDS011;5525;42.648;23.368;2022-12-17T04:39:46;22.98;;;16.13;;
10945;SDS011;5525;42.648;23.368;2022-12-17T04:42:30;25.58;;;16.52;;
10945;SDS011;5525;42.648;23.368;2022-12-17T04:45:17;22.10;;;15.00;;
10945;SDS011;5525;42.648;23.368;2022-12-17T04:48:03;21.23;;;14.13;;
10945;SDS011;5525;42.648;23.368;2022-12-17T04:50:50;21.98;;;14.50;;
10945;SDS011;5525;42.648;23.368;2022-12-17T04:53:35;22.83;;;15.60;;
10945;SDS011;5525;42.648;23.368;2022-12-17T04:56:22;23.63;;;15.43;;
10945;SDS011;5525;42.648;23.368;2022-12-17T04:59:06;23.90;;;15.10;;
10945;SDS011;5525;42.648;23.368;2022-12-17T05:01:51;21.45;;;13.88;;
10945;SDS011;5525;42.648;23.368;2022-12-17T05:04:36;23.35;;;14.32;;
10945;SDS011;5525;42.648;23.368;2022-12-17T05:07:21;26.67;;;16.52;;
10945;SDS011;5525;42.648;23.368;2022-12-17T05:10:09;20.08;;;14.00;;
10945;SDS011;5525;42.648;23.368;2022-12-17T05:12:59;22.23;;;13.90;;
10945;SDS011;5525;42.648;23.368;2022-12-17T05:15:54;19.88;;;12.88;;
10945;SDS011;5525;42.648;23.368;2022-12-17T05:18:39;19.85;;;12.95;;
10945;SDS011;5525;42.648;23.368;2022-12-17T05:21:25;17.83;;;12.45;;
10945;SDS011;5525;42.648;23.368;2022-12-17T05:24:09;17.75;;;12.57;;
10945;SDS011;5525;42.648;23.368;2022-12-17T05:26:54;19.92;;;13.00;;
10945;SDS011;5525;42.648;23.368;2022-12-17T05:29:44;20.13;;;12.23;;
10945;SDS011;5525;42.648;23.368;2022-12-17T05:32:28;18.98;;;12.38;;
10945;SDS011;5525;42.648;23.368;2022-12-17T05:35:13;17.25;;;11.98;;
10945;SDS011;5525;42.648;23.368;2022-12-17T05:38:10;20.73;;;12.20;;
10945;SDS011;5525;42.648;23.368;2022-12-17T05:40:55;21.15;;;12.40;;
10945;SDS011;5525;42.648;23.368;2022-12-17T05:43:46;18.08;;;12.68;;
10945;SDS011;5525;42.648;23.368;2022-12-17T05:46:35;16.92;;;11.95;;
10945;SDS011;5525;42.648;23.368;2022-12-17T05:49:22;17.77;;;12.32;;
10945;SDS011;5525;42.648;23.368;2022-12-17T05:52:07;18.38;;;12.25;;
10945;SDS011;5525;42.648;23.368;2022-12-17T05:54:54;19.65;;;11.80;;
10945;SDS011;5525;42.648;23.368;2022-12-17T05:57:38;17.02;;;12.18;;
10945;SDS011;5525;42.648;23.368;2022-12-17T06:00:23;16.40;;;11.38;;
10945;SDS011;5525;42.648;23.368;2022-12-17T06:03:10;14.45;;;10.88;;
10945;SDS011;5525;42.648;23.368;2022-12-17T06:05:55;14.80;;;11.55;;
10945;SDS011;5525;42.648;23.368;2022-12-17T06:08:41;18.02;;;12.07;;
10945;SDS011;5525;42.648;23.368;2022-12-17T06:11:27;18.38;;;12.18;;
10945;SDS011;5525;42.648;23.368;2022-12-17T06:14:12;20.50;;;11.88;;
10945;SDS011;5525;42.648;23.368;2022-12-17T06:16:57;20.05;;;13.05;;
10945;SDS011;5525;42.648;23.368;2022-12-17T06:19:49;18.25;;;12.35;;
10945;SDS011;5525;42.648;23.368;2022-12-17T06:22:35;17.15;;;11.93;;
10945;SDS011;5525;42.648;23.368;2022-12-17T06:25:20;19.67;;;13.27;;
10945;SDS011;5525;42.648;23.368;2022-12-17T06:28:04;18.90;;;12.75;;
10945;SDS011;5525;42.648;23.368;2022-12-17T06:30:50;20.33;;;14.70;;
10945;SDS011;5525;42.648;23.368;2022-12-17T06:33:37;18.88;;;12.75;;
10945;SDS011;5525;42.648;23.368;2022-12-17T06:36:24;18.77;;;12.73;;
10945;SDS011;5525;42.648;23.368;2022-12-17T06:39:14;18.25;;;12.52;;
10945;SDS011;5525;42.648;23.368;2022-12-17T06:41:59;17.80;;;12.25;;
10945;SDS011;5525;42.648;23.368;2022-12-17T06:44:49;17.35;;;12.70;;
10945;SDS011;5525;42.648;23.368;2022-12-17T06:47:34;16.92;;;12.05;;
10945;SDS011;5525;42.648;23.368;2022-12-17T06:50:18;16.70;;;12.48;;
10945;SDS011;5525;42.648;23.368;2022-12-17T06:53:06;18.65;;;13.65;;
10945;SDS011;5525;42.648;23.368;2022-12-17T06:55:55;19.08;;;13.95;;
10945;SDS011;5525;42.648;23.368;2022-12-17T06:58:43;18.50;;;14.45;;
10945;SDS011;5525;42.648;23.368;2022-12-17T07:01:28;21.75;;;14.05;;
10945;SDS011;5525;42.648;23.368;2022-12-17T07:04:21;19.63;;;14.43;;
10945;SDS011;5525;42.648;23.368;2022-12-17T07:07:05;20.60;;;14.65;;
10945;SDS011;5525;42.648;23.368;2022-12-17T07:09:52;23.27;;;15.45;;
10945;SDS011;5525;42.648;23.368;2022-12-17T07:12:37;18.98;;;14.23;;
10945;SDS011;5525;42.648;23.368;2022-12-17T07:15:23;20.98;;;14.05;;
10945;SDS011;5525;42.648;23.368;2022-12-17T07:18:08;19.08;;;14.00;;
10945;SDS011;5525;42.648;23.368;2022-12-17T07:20:52;18.80;;;12.63;;
10945;SDS011;5525;42.648;23.368;2022-12-17T07:23:40;18.58;;;12.07;;
10945;SDS011;5525;42.648;23.368;2022-12-17T07:26:29;18.17;;;12.45;;
10945;SDS011;5525;42.648;23.368;2022-12-17T07:29:17;15.48;;;11.65;;
10945;SDS011;5525;42.648;23.368;2022-12-17T07:32:08;16.95;;;12.02;;
10945;SDS011;5525;42.648;23.368;2022-12-17T07:34:57;14.73;;;11.18;;
10945;SDS011;5525;42.648;23.368;2022-12-17T07:37:44;17.02;;;11.57;;
10945;SDS011;5525;42.648;23.368;2022-12-17T07:40:30;16.67;;;10.80;;
10945;SDS011;5525;42.648;23.368;2022-12-17T07:43:20;15.15;;;11.02;;
10945;SDS011;5525;42.648;23.368;2022-12-17T07:46:05;15.02;;;11.23;;
10945;SDS011;5525;42.648;23.368;2022-12-17T07:48:39;15.52;;;10.57;;
10945;SDS011;5525;42.648;23.368;2022-12-17T07:51:25;15.32;;;10.73;;
10945;SDS011;5525;42.648;23.368;2022-12-17T07:54:10;16.50;;;10.80;;
10945;SDS011;5525;42.648;23.368;2022-12-17T07:56:55;15.13;;;9.35;;
10945;SDS011;5525;42.648;23.368;2022-12-17T07:59:41;6.38;;;4.75;;
10945;SDS011;5525;42.648;23.368;2022-12-17T08:02:25;5.72;;;4.38;;
10945;SDS011;5525;42.648;23.368;2022-12-17T08:05:10;5.90;;;3.97;;
10945;SDS011;5525;42.648;23.368;2022-12-17T08:07:54;5.20;;;3.58;;
10945;SDS011;5525;42.648;23.368;2022-12-17T08:10:39;3.30;;;2.75;;
10945;SDS011;5525;42.648;23.368;2022-12-17T08:13:24;4.65;;;2.58;;
10945;SDS011;5525;42.648;23.368;2022-12-17T08:16:11;5.15;;;1.88;;
10945;SDS011;5525;42.648;23.368;2022-12-17T08:18:55;2.17;;;1.50;;
10945;SDS011;5525;42.648;23.368;2022-12-17T08:21:51;2.33;;;1.80;;
10945;SDS011;5525;42.648;23.368;2022-12-17T08:24:36;3.42;;;1.67;;
10945;SDS011;5525;42.648;23.368;2022-12-17T08:27:20;3.40;;;1.80;;
10945;SDS011;5525;42.648;23.368;2022-12-17T08:30:05;3.35;;;2.10;;
10945;SDS011;5525;42.648;23.368;2022-12-17T08:32:52;7.15;;;3.28;;
10945;SDS011;5525;42.648;23.368;2022-12-17T08:35:37;8.45;;;5.05;;
10945;SDS011;5525;42.648;23.368;2022-12-17T08:38:24;6.70;;;5.57;;
10945;SDS011;5525;42.648;23.368;2022-12-17T08:41:12;9.00;;;6.72;;
10945;SDS011;5525;42.648;23.368;2022-12-17T08:43:59;12.13;;;7.65;;
10945;SDS011;5525;42.648;23.368;2022-12-17T08:46:43;9.90;;;8.10;;
10945;SDS011;5525;42.648;23.368;2022-12-17T08:49:30;13.15;;;8.93;;
10945;SDS011;5525;42.648;23.368;2022-12-17T08:52:12;11.73;;;8.75;;
10945;SDS011;5525;42.648;23.368;2022-12-17T08:54:58;11.15;;;8.38;;
10945;SDS011;5525;42.648;23.368;2022-12-17T08:57:51;13.00;;;9.43;;
10945;SDS011;5525;42.648;23.368;2022-12-17T09:00:36;8.85;;;7.40;;
10945;SDS011;5525;42.648;23.368;2022-12-17T09:03:20;10.07;;;7.38;;
10945;SDS011;5525;42.648;23.368;2022-12-17T09:06:06;9.82;;;6.32;;
10945;SDS011;5525;42.648;23.368;2022-12-17T09:09:06;7.95;;;5.70;;
10945;SDS011;5525;42.648;23.368;2022-12-17T09:11:50;8.30;;;5.45;;
10945;SDS011;5525;42.648;23.368;2022-12-17T09:14:35;7.00;;;4.75;;
10945;SDS011;5525;42.648;23.368;2022-12-17T09:17:20;7.18;;;3.92;;
10945;SDS011;5525;42.648;23.368;2022-12-17T09:20:07;8.57;;;4.18;;
10945;SDS011;5525;42.648;23.368;2022-12-17T09:39:17;5.63;;;4.22;;
10945;SDS011;5525;42.648;23.368;2022-12-17T09:42:06;9.00;;;5.88;;
10945;SDS011;5525;42.648;23.368;2022-12-17T09:45:03;6.40;;;3.63;;
10945;SDS011;5525;42.648;23.368;2022-12-17T09:48:00;4.82;;;3.35;;
10945;SDS011;5525;42.648;23.368;2022-12-17T09:51:02;4.72;;;3.35;;
10945;SDS011;5525;42.648;23.368;2022-12-17T09:53:50;4.20;;;3.03;;
10945;SDS011;5525;42.648;23.368;2022-12-17T09:59:47;4.72;;;2.90;;
10945;SDS011;5525;42.648;23.368;2022-12-17T10:02:36;8.50;;;4.18;;
10945;SDS011;5525;42.648;23.368;2022-12-17T10:19:28;4.20;;;2.40;;
10945;SDS011;5525;42.648;23.368;2022-12-17T10:22:23;5.40;;;2.70;;
10945;SDS011;5525;42.648;23.368;2022-12-17T10:25:13;3.63;;;2.20;;
10945;SDS011;5525;42.648;23.368;2022-12-17T10:28:04;5.93;;;3.33;;
10945;SDS011;5525;42.648;23.368;2022-12-17T10:31:03;2.88;;;1.83;;
10945;SDS011;5525;42.648;23.368;2022-12-17T10:34:04;2.72;;;2.20;;
10945;SDS011;5525;42.648;23.368;2022-12-17T10:36:54;1.67;;;1.00;;
10945;SDS011;5525;42.648;23.368;2022-12-17T10:39:53;1.73;;;0.93;;
10945;SDS011;5525;42.648;23.368;2022-12-17T10:42:43;1.25;;;0.80;;
10945;SDS011;5525;42.648;23.368;2022-12-17T10:45:34;2.78;;;0.88;;
10945;SDS011;5525;42.648;23.368;2022-12-17T10:48:21;1.33;;;0.90;;
10945;SDS011;5525;42.648;23.368;2022-12-17T10:51:23;0.50;;;0.50;;
10945;SDS011;5525;42.648;23.368;2022-12-17T10:54:16;2.25;;;0.90;;
10945;SDS011;5525;42.648;23.368;2022-12-17T10:57:08;1.10;;;0.90;;
10945;SDS011;5525;42.648;23.368;2022-12-17T11:00:22;0.40;;;0.40;;
10945;SDS011;5525;42.648;23.368;2022-12-17T11:03:21;2.15;;;0.68;;
10945;SDS011;5525;42.648;23.368;2022-12-17T11:06:11;0.50;;;0.50;;
10945;SDS011;5525;42.648;23.368;2022-12-17T11:12:14;0.70;;;0.70;;
10945;SDS011;5525;42.648;23.368;2022-12-17T11:15:06;1.90;;;1.10;;
10945;SDS011;5525;42.648;23.368;2022-12-17T11:18:10;1.10;;;0.98;;
10945;SDS011;5525;42.648;23.368;2022-12-17T11:21:08;2.05;;;1.30;;
10945;SDS011;5525;42.648;23.368;2022-12-17T11:24:10;1.25;;;1.15;;
10945;SDS011;5525;42.648;23.368;2022-12-17T11:38:44;4.10;;;1.95;;
10945;SDS011;5525;42.648;23.368;2022-12-17T11:41:51;4.88;;;2.60;;
10945;SDS011;5525;42.648;23.368;2022-12-17T11:44:53;4.07;;;2.80;;
10945;SDS011;5525;42.648;23.368;2022-12-17T11:47:49;4.70;;;1.90;;
10945;SDS011;5525;42.648;23.368;2022-12-17T11:50:56;4.53;;;2.70;;
10945;SDS011;5525;42.648;23.368;2022-12-17T11:57:53;6.43;;;4.05;;
10945;SDS011;5525;42.648;23.368;2022-12-17T12:00:49;6.63;;;3.70;;
10945;SDS011;5525;42.648;23.368;2022-12-17T12:03:56;4.15;;;2.55;;
10945;SDS011;5525;42.648;23.368;2022-12-17T12:06:59;3.75;;;3.03;;
10945;SDS011;5525;42.648;23.368;2022-12-17T12:09:58;5.70;;;3.85;;
10945;SDS011;5525;42.648;23.368;2022-12-17T13:03:26;6.60;;;4.20;;
10945;SDS011;5525;42.648;23.368;2022-12-17T13:06:36;7.35;;;4.30;;
10945;SDS011;5525;42.648;23.368;2022-12-17T13:18:14;7.15;;;4.50;;
10945;SDS011;5525;42.648;23.368;2022-12-17T13:27:25;5.55;;;4.70;;
10945;SDS011;5525;42.648;23.368;2022-12-17T13:30:11;8.02;;;5.57;;
10945;SDS011;5525;42.648;23.368;2022-12-17T13:41:11;10.32;;;6.65;;
10945;SDS011;5525;42.648;23.368;2022-12-17T13:43:53;9.15;;;6.43;;
10945;SDS011;5525;42.648;23.368;2022-12-17T13:46:34;6.88;;;5.10;;
10945;SDS011;5525;42.648;23.368;2022-12-17T13:49:15;8.77;;;6.70;;
10945;SDS011;5525;42.648;23.368;2022-12-17T13:51:59;10.65;;;6.72;;
10945;SDS011;5525;42.648;23.368;2022-12-17T13:54:35;9.10;;;5.38;;
10945;SDS011;5525;42.648;23.368;2022-12-17T13:57:12;9.02;;;6.60;;
10945;SDS011;5525;42.648;23.368;2022-12-17T13:59:47;6.10;;;5.50;;
10945;SDS011;5525;42.648;23.368;2022-12-17T14:02:24;8.90;;;6.15;;
10945;SDS011;5525;42.648;23.368;2022-12-17T14:04:53;8.82;;;7.03;;
10945;SDS011;5525;42.648;23.368;2022-12-17T14:07:22;10.07;;;6.97;;
10945;SDS011;5525;42.648;23.368;2022-12-17T14:09:50;9.50;;;6.95;;
10945;SDS011;5525;42.648;23.368;2022-12-17T14:12:18;7.68;;;6.15;;
10945;SDS011;5525;42.648;23.368;2022-12-17T14:14:49;9.73;;;7.80;;
10945;SDS011;5525;42.648;23.368;2022-12-17T14:17:21;9.73;;;7.43;;
10945;SDS011;5525;42.648;23.368;2022-12-17T14:19:51;9.05;;;7.03;;
10945;SDS011;5525;42.648;23.368;2022-12-17T14:22:28;10.00;;;7.93;;
10945;SDS011;5525;42.648;23.368;2022-12-17T14:24:59;10.38;;;7.60;;
10945;SDS011;5525;42.648;23.368;2022-12-17T14:27:30;22.58;;;14.00;;
10945;SDS011;5525;42.648;23.368;2022-12-17T14:32:57;16.60;;;11.48;;
10945;SDS011;5525;42.648;23.368;2022-12-17T14:35:27;12.85;;;9.13;;
10945;SDS011;5525;42.648;23.368;2022-12-17T14:38:01;12.32;;;8.13;;
10945;SDS011;5525;42.648;23.368;2022-12-17T14:40:29;11.25;;;7.57;;
10945;SDS011;5525;42.648;23.368;2022-12-17T14:42:59;14.02;;;8.55;;
10945;SDS011;5525;42.648;23.368;2022-12-17T14:45:27;10.18;;;7.57;;
10945;SDS011;5525;42.648;23.368;2022-12-17T14:47:56;9.93;;;7.45;;
10945;SDS011;5525;42.648;23.368;2022-12-17T14:50:28;12.00;;;7.63;;
10945;SDS011;5525;42.648;23.368;2022-12-17T14:52:59;12.48;;;7.68;;
10945;SDS011;5525;42.648;23.368;2022-12-17T14:55:29;9.13;;;6.30;;
10945;SDS011;5525;42.648;23.368;2022-12-17T14:58:12;8.63;;;6.75;;
10945;SDS011;5525;42.648;23.368;2022-12-17T15:00:43;13.23;;;8.90;;
10945;SDS011;5525;42.648;23.368;2022-12-17T15:03:15;13.88;;;9.13;;
10945;SDS011;5525;42.648;23.368;2022-12-17T15:05:51;10.70;;;7.85;;
10945;SDS011;5525;42.648;23.368;2022-12-17T15:08:22;12.13;;;8.13;;
10945;SDS011;5525;42.648;23.368;2022-12-17T15:10:49;18.67;;;10.93;;
10945;SDS011;5525;42.648;23.368;2022-12-17T15:13:16;6.88;;;4.80;;
10945;SDS011;5525;42.648;23.368;2022-12-17T15:15:45;13.00;;;7.00;;
10945;SDS011;5525;42.648;23.368;2022-12-17T15:18:13;14.15;;;8.60;;
10945;SDS011;5525;42.648;23.368;2022-12-17T15:20:41;12.18;;;8.82;;
10945;SDS011;5525;42.648;23.368;2022-12-17T15:23:10;10.48;;;7.03;;
10945;SDS011;5525;42.648;23.368;2022-12-17T15:25:42;11.63;;;7.22;;
10945;SDS011;5525;42.648;23.368;2022-12-17T15:28:11;11.43;;;8.07;;
10945;SDS011;5525;42.648;23.368;2022-12-17T15:30:39;10.57;;;7.43;;
10945;SDS011;5525;42.648;23.368;2022-12-17T15:33:09;17.60;;;11.23;;
10945;SDS011;5525;42.648;23.368;2022-12-17T15:35:37;21.35;;;13.18;;
10945;SDS011;5525;42.648;23.368;2022-12-17T15:38:06;21.23;;;12.35;;
10945;SDS011;5525;42.648;23.368;2022-12-17T15:40:34;12.00;;;8.60;;
10945;SDS011;5525;42.648;23.368;2022-12-17T15:43:03;12.43;;;9.57;;
10945;SDS011;5525;42.648;23.368;2022-12-17T15:45:35;14.60;;;10.30;;
10945;SDS011;5525;42.648;23.368;2022-12-17T15:48:03;16.25;;;10.30;;
10945;SDS011;5525;42.648;23.368;2022-12-17T15:50:34;16.27;;;11.13;;
10945;SDS011;5525;42.648;23.368;2022-12-17T15:53:03;18.20;;;11.65;;
10945;SDS011;5525;42.648;23.368;2022-12-17T15:55:32;25.77;;;14.27;;
10945;SDS011;5525;42.648;23.368;2022-12-17T15:58:00;11.52;;;8.68;;
10945;SDS011;5525;42.648;23.368;2022-12-17T16:00:27;15.85;;;10.15;;
10945;SDS011;5525;42.648;23.368;2022-12-17T16:02:54;11.48;;;8.70;;
10945;SDS011;5525;42.648;23.368;2022-12-17T16:05:22;18.98;;;12.68;;
10945;SDS011;5525;42.648;23.368;2022-12-17T16:07:52;14.88;;;9.43;;
10945;SDS011;5525;42.648;23.368;2022-12-17T16:10:23;16.33;;;12.00;;
10945;SDS011;5525;42.648;23.368;2022-12-17T16:12:51;18.27;;;13.23;;
10945;SDS011;5525;42.648;23.368;2022-12-17T16:15:18;17.10;;;13.23;;
10945;SDS011;5525;42.648;23.368;2022-12-17T16:17:46;22.85;;;15.27;;
10945;SDS011;5525;42.648;23.368;2022-12-17T16:20:14;19.80;;;14.50;;
10945;SDS011;5525;42.648;23.368;2022-12-17T16:22:43;28.42;;;18.73;;
10945;SDS011;5525;42.648;23.368;2022-12-17T16:25:13;19.20;;;14.63;;
10945;SDS011;5525;42.648;23.368;2022-12-17T16:27:42;20.73;;;15.48;;
10945;SDS011;5525;42.648;23.368;2022-12-17T16:30:14;25.33;;;17.85;;
10945;SDS011;5525;42.648;23.368;2022-12-17T16:32:45;19.90;;;15.82;;
10945;SDS011;5525;42.648;23.368;2022-12-17T16:35:12;23.08;;;16.92;;
10945;SDS011;5525;42.648;23.368;2022-12-17T16:37:44;22.50;;;16.63;;
10945;SDS011;5525;42.648;23.368;2022-12-17T16:40:17;20.75;;;17.17;;
10945;SDS011;5525;42.648;23.368;2022-12-17T16:42:46;27.25;;;20.30;;
10945;SDS011;5525;42.648;23.368;2022-12-17T16:45:20;25.65;;;20.20;;
10945;SDS011;5525;42.648;23.368;2022-12-17T16:47:47;38.75;;;32.97;;
10945;SDS011;5525;42.648;23.368;2022-12-17T16:50:15;34.50;;;28.88;;
10945;SDS011;5525;42.648;23.368;2022-12-17T16:52:42;25.25;;;20.58;;
10945;SDS011;5525;42.648;23.368;2022-12-17T16:55:11;29.73;;;21.95;;
10945;SDS011;5525;42.648;23.368;2022-12-17T16:57:47;31.10;;;25.23;;
10945;SDS011;5525;42.648;23.368;2022-12-17T17:00:19;34.70;;;27.95;;
10945;SDS011;5525;42.648;23.368;2022-12-17T17:02:51;29.38;;;25.50;;
10945;SDS011;5525;42.648;23.368;2022-12-17T17:05:23;39.45;;;32.00;;
10945;SDS011;5525;42.648;23.368;2022-12-17T17:07:54;27.80;;;21.40;;
10945;SDS011;5525;42.648;23.368;2022-12-17T17:10:36;37.78;;;28.48;;
10945;SDS011;5525;42.648;23.368;2022-12-17T17:13:13;30.13;;;22.45;;
10945;SDS011;5525;42.648;23.368;2022-12-17T17:15:45;25.70;;;20.08;;
10945;SDS011;5525;42.648;23.368;2022-12-17T17:18:14;30.10;;;21.00;;
10945;SDS011;5525;42.648;23.368;2022-12-17T17:20:49;24.95;;;15.80;;
10945;SDS011;5525;42.648;23.368;2022-12-17T17:23:19;30.15;;;20.52;;
10945;SDS011;5525;42.648;23.368;2022-12-17T17:25:51;27.05;;;19.80;;
10945;SDS011;5525;42.648;23.368;2022-12-17T17:28:25;24.70;;;17.48;;
10945;SDS011;5525;42.648;23.368;2022-12-17T17:31:09;16.25;;;11.02;;
10945;SDS011;5525;42.648;23.368;2022-12-17T17:33:40;19.33;;;14.70;;
10945;SDS011;5525;42.648;23.368;2022-12-17T17:36:14;20.48;;;15.10;;
10945;SDS011;5525;42.648;23.368;2022-12-17T17:38:44;21.90;;;14.68;;
10945;SDS011;5525;42.648;23.368;2022-12-17T17:41:15;23.45;;;16.20;;
10945;SDS011;5525;42.648;23.368;2022-12-17T17:43:45;23.05;;;15.55;;
10945;SDS011;5525;42.648;23.368;2022-12-17T17:46:19;15.75;;;12.40;;
10945;SDS011;5525;42.648;23.368;2022-12-17T17:48:48;17.63;;;12.25;;
10945;SDS011;5525;42.648;23.368;2022-12-17T17:51:17;18.95;;;12.63;;
10945;SDS011;5525;42.648;23.368;2022-12-17T17:53:47;16.83;;;12.13;;
10945;SDS011;5525;42.648;23.368;2022-12-17T17:56:18;23.23;;;14.98;;
10945;SDS011;5525;42.648;23.368;2022-12-17T17:58:51;22.52;;;14.68;;
10945;SDS011;5525;42.648;23.368;2022-12-17T18:01:21;27.73;;;17.65;;
10945;SDS011;5525;42.648;23.368;2022-12-17T18:03:50;27.30;;;16.15;;
10945;SDS011;5525;42.648;23.368;2022-12-17T18:06:22;19.00;;;13.05;;
10945;SDS011;5525;42.648;23.368;2022-12-17T18:08:51;17.85;;;12.68;;
10945;SDS011;5525;42.648;23.368;2022-12-17T18:11:22;20.58;;;12.65;;
10945;SDS011;5525;42.648;23.368;2022-12-17T18:13:54;20.10;;;14.10;;
10945;SDS011;5525;42.648;23.368;2022-12-17T18:16:22;26.67;;;16.55;;
10945;SDS011;5525;42.648;23.368;2022-12-17T18:18:51;26.63;;;16.70;;
10945;SDS011;5525;42.648;23.368;2022-12-17T18:21:21;30.50;;;20.70;;
10945;SDS011;5525;42.648;23.368;2022-12-17T18:23:52;31.60;;;21.08;;
10945;SDS011;5525;42.648;23.368;2022-12-17T18:26:24;26.88;;;18.00;;
10945;SDS011;5525;42.648;23.368;2022-12-17T18:28:57;33.05;;;22.33;;
10945;SDS011;5525;42.648;23.368;2022-12-17T18:31:27;36.75;;;25.65;;
10945;SDS011;5525;42.648;23.368;2022-12-17T18:33:56;38.88;;;26.95;;
10945;SDS011;5525;42.648;23.368;2022-12-17T18:36:28;37.70;;;24.30;;
10945;SDS011;5525;42.648;23.368;2022-12-17T18:38:58;36.22;;;25.40;;
10945;SDS011;5525;42.648;23.368;2022-12-17T18:41:27;37.50;;;26.90;;